createdAt,value
2023-01-25T00:00:41.214Z,4.87
2023-01-25T00:04:53.827Z,4.85
2023-01-25T00:09:06.206Z,4.92
2023-01-25T00:13:18.727Z,4.85
2023-01-25T00:17:31.125Z,4.73
2023-01-25T00:21:43.780Z,4.67
2023-01-25T00:25:59.318Z,4.64
2023-01-25T00:30:12.053Z,4.58
2023-01-25T00:34:24.404Z,4.52
2023-01-25T00:38:39.066Z,4.50
2023-01-25T00:42:51.413Z,4.54
2023-01-25T00:47:08.243Z,4.59
2023-01-25T00:51:20.677Z,4.57
2023-01-25T00:55:34.476Z,4.47
2023-01-25T00:59:47.805Z,4.55
2023-01-25T01:04:00.562Z,4.60
2023-01-25T01:08:18.268Z,4.76
2023-01-25T01:12:30.776Z,4.68
2023-01-25T01:16:43.270Z,4.59
2023-01-25T01:20:56.104Z,4.51
2023-01-25T01:25:09.576Z,4.50
2023-01-25T01:29:22.672Z,4.60
2023-01-25T01:33:36.264Z,4.45
2023-01-25T01:37:48.703Z,4.49
2023-01-25T01:42:02.441Z,4.40
2023-01-25T01:46:25.655Z,4.55
2023-01-25T01:50:38.267Z,4.40
2023-01-25T01:55:03.955Z,4.45
2023-01-25T01:59:25.627Z,4.35
2023-01-25T02:03:41.869Z,4.40
2023-01-25T02:07:56.380Z,4.37
2023-01-25T02:12:10.888Z,4.49
2023-01-25T02:16:26.647Z,4.53
2023-01-25T02:20:42.697Z,4.46
2023-01-25T02:25:19.143Z,4.46
2023-01-25T02:29:32.878Z,4.30
2023-01-25T02:33:46.226Z,4.20
2023-01-25T02:37:58.471Z,4.32
2023-01-25T02:42:10.614Z,4.30
2023-01-25T02:46:36.821Z,4.47
2023-01-25T02:50:49.211Z,4.48
2023-01-25T02:55:03.495Z,4.44
2023-01-25T02:59:17.148Z,4.40
2023-01-25T03:03:33.266Z,4.39
2023-01-25T03:07:48.745Z,4.35
2023-01-25T03:12:02.174Z,4.60
2023-01-25T03:16:16.160Z,4.67
2023-01-25T03:20:31.176Z,4.55
2023-01-25T03:24:43.420Z,4.53
2023-01-25T03:28:57.105Z,4.52
2023-01-25T03:33:13.440Z,4.53
2023-01-25T03:37:40.670Z,4.59
2023-01-25T03:41:56.483Z,4.74
2023-01-25T03:46:10.840Z,4.83
2023-01-25T03:50:24.770Z,4.96
2023-01-25T03:54:39.543Z,5.07
2023-01-25T03:58:53.951Z,5.07
2023-01-25T04:03:07.582Z,5.03
2023-01-25T04:07:20.692Z,4.90
2023-01-25T04:11:33.585Z,4.68
2023-01-25T04:15:45.907Z,4.84
2023-01-25T04:20:10.080Z,4.61
2023-01-25T04:24:25.473Z,4.57
2023-01-25T04:28:37.686Z,4.47
2023-01-25T04:32:51.054Z,4.45
2023-01-25T04:37:08.344Z,4.38
2023-01-25T04:41:30.981Z,4.41
2023-01-25T04:45:43.688Z,4.41
2023-01-25T04:50:04.604Z,4.39
2023-01-25T04:54:18.206Z,4.44
2023-01-25T04:58:30.401Z,4.54
2023-01-25T05:02:43.176Z,4.46
2023-01-25T05:06:55.415Z,4.30
2023-01-25T05:11:07.633Z,4.38
2023-01-25T05:15:34.268Z,4.45
2023-01-25T05:19:47.868Z,4.47
2023-01-25T05:24:02.868Z,4.52
2023-01-25T05:28:16.800Z,4.50
2023-01-25T05:32:50.537Z,4.48
2023-01-25T05:37:04.206Z,4.60
2023-01-25T05:41:16.704Z,4.83
2023-01-25T05:45:30.404Z,4.77
2023-01-25T05:49:44.180Z,4.76
2023-01-25T05:54:03.139Z,4.77
2023-01-25T05:58:15.426Z,4.91
2023-01-25T06:02:28.579Z,5.00
2023-01-25T06:06:40.909Z,5.05
2023-01-25T06:10:53.140Z,5.22
2023-01-25T06:15:05.834Z,5.24
2023-01-25T06:19:18.206Z,5.28
2023-01-25T06:23:50.520Z,5.27
2023-01-25T06:28:02.809Z,5.32
2023-01-25T06:32:15.002Z,5.51
2023-01-25T06:36:27.261Z,5.79
2023-01-25T06:40:39.465Z,5.90
2023-01-25T06:44:51.591Z,6.07
2023-01-25T06:49:03.806Z,6.33
2023-01-25T06:53:15.983Z,6.80
2023-01-25T06:57:29.608Z,7.32
2023-01-25T07:01:41.871Z,8.99
2023-01-25T07:06:05.668Z,8.61
2023-01-25T07:10:17.922Z,7.31
2023-01-25T07:14:30.116Z,8.59
2023-01-25T07:18:42.790Z,9.72
2023-01-25T07:23:06.117Z,9.89
2023-01-25T07:27:18.380Z,10.16
2023-01-25T07:31:30.925Z,10.38
2023-01-25T07:35:43.199Z,10.54
2023-01-25T07:39:58.307Z,10.24
2023-01-25T07:44:10.885Z,10.40
2023-01-25T07:48:26.907Z,10.81
2023-01-25T07:52:41.996Z,11.03
2023-01-25T07:56:54.265Z,11.08
2023-01-25T08:01:17.259Z,11.32
2023-01-25T08:05:29.548Z,11.55
2023-01-25T08:09:42.808Z,11.52
2023-01-25T08:13:55.606Z,11.52
2023-01-25T08:18:07.781Z,11.81
2023-01-25T08:22:19.979Z,11.73
2023-01-25T08:26:32.780Z,11.47
2023-01-25T08:30:56.387Z,11.71
2023-01-25T08:35:10.032Z,12.22
2023-01-25T08:39:22.628Z,11.91
2023-01-25T08:43:35.582Z,12.14
2023-01-25T08:47:47.783Z,12.55
2023-01-25T08:51:59.921Z,12.89
2023-01-25T08:56:15.176Z,12.50
2023-01-25T09:00:27.273Z,12.56
2023-01-25T09:04:39.631Z,12.96
2023-01-25T09:08:51.828Z,13.07
2023-01-25T09:13:04.300Z,13.16
2023-01-25T09:17:16.907Z,13.29
2023-01-25T09:21:30.204Z,13.29
2023-01-25T09:25:42.353Z,13.39
2023-01-25T09:30:02.185Z,13.56
2023-01-25T09:34:26.800Z,13.54
2023-01-25T09:38:39.527Z,13.53
2023-01-25T09:43:21.731Z,13.27
2023-01-25T09:47:45.978Z,13.99
2023-01-25T09:52:24.496Z,13.42
2023-01-25T09:56:38.631Z,13.53
2023-01-25T10:00:58.792Z,13.86
2023-01-25T10:05:23.137Z,13.93
2023-01-25T10:10:06.812Z,13.31
2023-01-25T10:14:21.873Z,12.99
2023-01-25T10:18:52.033Z,12.95
2023-01-25T10:23:27.298Z,12.27
2023-01-25T10:27:45.384Z,12.17
2023-01-25T10:32:35.799Z,12.47
2023-01-25T10:37:04.982Z,12.97
2023-01-25T10:41:39.196Z,12.99
2023-01-25T10:45:52.243Z,13.06
2023-01-25T10:50:04.915Z,13.10
2023-01-25T10:54:17.275Z,13.19
2023-01-25T10:58:32.383Z,12.98
2023-01-25T11:02:46.714Z,12.86
2023-01-25T11:07:00.051Z,13.11
2023-01-25T11:11:24.595Z,12.99
2023-01-25T11:15:36.984Z,12.45
2023-01-25T11:19:49.236Z,12.44
2023-01-25T11:24:09.146Z,12.63
2023-01-25T11:28:24.416Z,12.36
2023-01-25T11:32:39.640Z,12.88
2023-01-25T11:37:34.436Z,12.08
2023-01-25T11:42:12.838Z,12.80
2023-01-25T11:46:43.936Z,12.58
2023-01-25T11:51:01.734Z,12.63
2023-01-25T11:55:31.996Z,12.12
2023-01-25T11:59:48.554Z,11.68
2023-01-25T12:04:33.045Z,11.80
2023-01-25T12:09:01.154Z,11.35
2023-01-25T12:13:39.586Z,12.08
2023-01-25T12:18:11.545Z,12.73
2023-01-25T12:22:46.452Z,12.83
2023-01-25T12:27:07.647Z,13.08
2023-01-25T12:31:23.692Z,13.09
2023-01-25T12:35:45.208Z,13.00
2023-01-25T12:40:14.547Z,13.03
2023-01-25T12:44:35.946Z,13.07
2023-01-25T12:48:53.617Z,12.76
2023-01-25T12:53:12.154Z,12.78
2023-01-25T12:57:45.223Z,12.93
2023-01-25T13:02:30.653Z,12.80
2023-01-25T13:07:13.788Z,12.65
2023-01-25T13:11:43.829Z,12.90
2023-01-25T13:15:56.674Z,12.99
2023-01-25T13:20:44.786Z,12.79
2023-01-25T13:25:11.976Z,12.65
2023-01-25T13:29:35.080Z,12.97
2023-01-25T13:33:47.491Z,12.91
2023-01-25T13:38:24.917Z,12.78
2023-01-25T13:42:39.795Z,12.26
2023-01-25T13:46:51.988Z,12.67
2023-01-25T13:51:10.521Z,12.64
2023-01-25T13:55:22.693Z,12.59
2023-01-25T13:59:34.939Z,12.54
2023-01-25T14:03:53.345Z,12.69
2023-01-25T14:08:13.717Z,12.73
2023-01-25T14:12:40.803Z,12.34
2023-01-25T14:17:21.419Z,12.46
2023-01-25T14:21:34.748Z,12.65
2023-01-25T14:25:51.487Z,12.48
2023-01-25T14:30:06.968Z,11.88
2023-01-25T14:34:20.714Z,12.15
2023-01-25T14:38:38.333Z,12.00
2023-01-25T14:42:53.195Z,11.65
2023-01-25T14:47:33.547Z,11.35
2023-01-25T14:51:47.841Z,11.37
2023-01-25T14:56:00.374Z,11.18
2023-01-25T15:00:23.266Z,10.72
2023-01-25T15:04:36.114Z,10.94
2023-01-25T15:08:49.880Z,11.00
2023-01-25T15:13:17.410Z,10.79
2023-01-25T15:17:47.618Z,10.16
2023-01-25T15:22:01.165Z,10.66
2023-01-25T15:26:30.781Z,10.62
2023-01-25T15:30:43.364Z,10.63
2023-01-25T15:34:55.953Z,10.64
2023-01-25T15:39:18.642Z,10.61
2023-01-25T15:43:31.997Z,10.71
2023-01-25T15:47:44.319Z,10.48
2023-01-25T15:51:58.315Z,10.30
2023-01-25T15:56:17.108Z,10.21
2023-01-25T16:00:29.477Z,10.16
2023-01-25T16:04:42.565Z,10.02
2023-01-25T16:08:55.295Z,9.88
2023-01-25T16:13:13.933Z,9.68
2023-01-25T16:17:30.818Z,9.84
2023-01-25T16:21:44.989Z,9.79
2023-01-25T16:25:57.562Z,9.83
2023-01-25T16:30:18.954Z,9.97
2023-01-25T16:34:31.556Z,10.48
2023-01-25T16:38:44.661Z,10.77
2023-01-25T16:42:57.486Z,11.01
2023-01-25T16:47:14.836Z,10.87
2023-01-25T16:51:29.071Z,11.14
2023-01-25T16:55:41.591Z,11.11
2023-01-25T16:59:56.763Z,11.05
2023-01-25T17:04:09.377Z,11.16
2023-01-25T17:08:21.763Z,10.65
2023-01-25T17:12:34.224Z,10.12
2023-01-25T17:16:51.907Z,9.85
2023-01-25T17:21:07.316Z,9.81
2023-01-25T17:25:22.693Z,9.84
2023-01-25T17:29:35.177Z,9.88
2023-01-25T17:33:48.395Z,10.04
2023-01-25T17:38:03.556Z,10.00
2023-01-25T17:42:16.188Z,9.94
2023-01-25T17:46:33.520Z,9.93
2023-01-25T17:50:46.254Z,10.51
2023-01-25T17:55:00.708Z,10.57
2023-01-25T17:59:13.034Z,10.62
2023-01-25T18:03:25.525Z,10.81
2023-01-25T18:07:39.265Z,11.10
2023-01-25T18:11:51.775Z,11.24
2023-01-25T18:16:08.124Z,11.32
2023-01-25T18:20:22.026Z,11.14
2023-01-25T18:24:36.686Z,11.08
2023-01-25T18:28:52.027Z,11.20
2023-01-25T18:33:05.997Z,11.21
2023-01-25T18:37:21.364Z,11.06
2023-01-25T18:41:33.930Z,11.35
2023-01-25T18:45:53.601Z,11.28
2023-01-25T18:50:07.579Z,11.68
2023-01-25T18:54:20.026Z,11.50
2023-01-25T18:58:34.486Z,11.48
2023-01-25T19:02:47.127Z,11.52
2023-01-25T19:07:01.827Z,11.36
2023-01-25T19:11:17.464Z,11.52
2023-01-25T19:15:30.963Z,11.55
2023-01-25T19:19:45.405Z,11.51
2023-01-25T19:23:58.000Z,11.50
2023-01-25T19:28:10.445Z,11.61
2023-01-25T19:32:22.784Z,11.49
2023-01-25T19:36:37.595Z,11.41
2023-01-25T19:40:50.879Z,11.44
2023-01-25T19:45:04.940Z,11.30
2023-01-25T19:49:18.550Z,10.89
2023-01-25T19:53:30.940Z,11.25
2023-01-25T19:57:43.359Z,11.11
2023-01-25T20:01:55.921Z,11.13
2023-01-25T20:06:09.856Z,11.27
2023-01-25T20:10:22.384Z,11.19
2023-01-25T20:14:35.891Z,11.28
2023-01-25T20:18:49.457Z,11.06
2023-01-25T20:23:01.842Z,11.20
2023-01-25T20:27:14.245Z,11.27
2023-01-25T20:31:34.079Z,11.20
2023-01-25T20:35:46.698Z,11.01
2023-01-25T20:40:03.994Z,11.02
2023-01-25T20:44:18.246Z,11.19
2023-01-25T20:48:36.650Z,11.11
2023-01-25T20:52:49.102Z,10.68
2023-01-25T20:57:01.556Z,11.14
2023-01-25T21:01:16.340Z,11.11
2023-01-25T21:05:28.767Z,11.00
2023-01-25T21:09:42.916Z,11.19
2023-01-25T21:13:55.592Z,11.08
2023-01-25T21:18:08.104Z,10.89
2023-01-25T21:22:21.287Z,10.77
2023-01-25T21:26:36.138Z,11.11
2023-01-25T21:30:48.850Z,11.08
2023-01-25T21:35:01.297Z,10.88
2023-01-25T21:39:13.802Z,11.10
2023-01-25T21:43:26.158Z,10.95
2023-01-25T21:47:38.628Z,10.77
2023-01-25T21:51:53.151Z,10.71
2023-01-25T21:56:05.692Z,10.93
2023-01-25T22:00:18.559Z,11.08
2023-01-25T22:04:36.208Z,11.07
2023-01-25T22:08:48.727Z,10.88
2023-01-25T22:13:01.161Z,10.82
2023-01-25T22:17:14.680Z,10.97
2023-01-25T22:21:30.973Z,10.80
2023-01-25T22:25:43.886Z,10.74
2023-01-25T22:29:56.234Z,10.76
2023-01-25T22:34:11.507Z,10.75
2023-01-25T22:38:23.877Z,10.65
2023-01-25T22:42:36.171Z,10.79
2023-01-25T22:46:50.824Z,10.67
2023-01-25T22:51:10.613Z,10.78
2023-01-25T22:55:22.969Z,10.26
2023-01-25T22:59:35.916Z,10.67
2023-01-25T23:03:49.250Z,10.70
2023-01-25T23:08:05.220Z,10.41
2023-01-25T23:12:18.400Z,10.38
2023-01-25T23:16:31.246Z,10.53
2023-01-25T23:20:44.713Z,10.77
2023-01-25T23:24:59.884Z,10.72
2023-01-25T23:29:13.008Z,10.44
2023-01-25T23:33:26.811Z,9.87
2023-01-25T23:37:39.175Z,9.32
2023-01-25T23:41:52.648Z,9.31
2023-01-25T23:46:08.194Z,9.31
2023-01-25T23:50:20.423Z,8.89
2023-01-25T23:54:33.776Z,9.36
2023-01-25T23:58:47.924Z,8.59
